Time;durP1;ratioP1;P1;durP2;ratioP2;P2;SDS_P1;SDS_P2;PMS_P1;PMS_P2;Temp;Humidity;BMP_temperature;BMP_pressure;BME280_temperature;BME280_humidity;BME280_pressure;Samples;Min_cycle;Max_cycle;Signal;HPM_P1;HPM_P2
2023/09/16 00:01:43;;;;;;;12.13;8.43;;;;;;;;;;5015686;28;20265;-67
2023/09/16 00:04:09;;;;;;;14.07;8.70;;;;;;;;;;5033660;28;20203;-67
2023/09/16 00:06:35;;;;;;;14.83;8.50;;;;;;;;;;5034081;28;20206;-68
2023/09/16 00:09:01;;;;;;;16.13;9.30;;;;;;;;;;5016116;28;20183;-68
2023/09/16 00:11:29;;;;;;;12.83;9.10;;;;;;;;;;5016776;28;20182;-67
2023/09/16 00:13:55;;;;;;;14.60;8.97;;;;;;;;;;5015874;28;20183;-68
2023/09/16 00:16:21;;;;;;;17.07;9.37;;;;;;;;;;5015880;28;20298;-67
2023/09/16 00:18:47;;;;;;;13.03;9.40;;;;;;;;;;5033310;28;20727;-68
2023/09/16 00:21:14;;;;;;;12.80;8.70;;;;;;;;;;5015526;28;20317;-67
2023/09/16 00:23:42;;;;;;;13.10;8.80;;;;;;;;;;5015254;28;20210;-67
2023/09/16 00:26:08;;;;;;;12.73;8.20;;;;;;;;;;5015431;28;20199;-68
2023/09/16 00:28:35;;;;;;;14.30;9.03;;;;;;;;;;5015708;28;20558;-67
2023/09/16 00:31:02;;;;;;;11.77;9.07;;;;;;;;;;5033064;28;20175;-67
2023/09/16 00:33:29;;;;;;;16.93;8.63;;;;;;;;;;5032896;28;20172;-68
2023/09/16 00:35:56;;;;;;;15.13;8.83;;;;;;;;;;5032878;28;20262;-68
2023/09/16 00:38:22;;;;;;;11.03;8.97;;;;;;;;;;5017180;28;20191;-68
2023/09/16 00:40:48;;;;;;;14.23;8.70;;;;;;;;;;5036823;28;20187;-67
2023/09/16 00:43:14;;;;;;;12.57;8.67;;;;;;;;;;5036933;28;20262;-68
2023/09/16 00:45:41;;;;;;;9.23;7.97;;;;;;;;;;5037106;28;20621;-68
2023/09/16 00:48:07;;;;;;;14.03;9.23;;;;;;;;;;5036660;28;20187;-68
2023/09/16 00:50:33;;;;;;;11.87;9.37;;;;;;;;;;5018755;28;20641;-67
2023/09/16 00:52:59;;;;;;;9.97;8.83;;;;;;;;;;5037023;28;20179;-67
2023/09/16 00:55:27;;;;;;;16.20;8.73;;;;;;;;;;5036255;28;20210;-67
2023/09/16 00:57:54;;;;;;;11.33;8.83;;;;;;;;;;5036183;28;20210;-67
2023/09/16 01:00:20;;;;;;;13.47;8.93;;;;;;;;;;5018684;28;20190;-68
2023/09/16 01:02:46;;;;;;;13.90;8.27;;;;;;;;;;5036137;28;20524;-67
2023/09/16 01:05:15;;;;;;;10.80;8.47;;;;;;;;;;5036474;28;20322;-67
2023/09/16 01:07:42;;;;;;;13.33;8.43;;;;;;;;;;5036343;28;20198;-67
2023/09/16 01:10:10;;;;;;;14.93;8.13;;;;;;;;;;5060242;22;20231;-67
2023/09/16 01:12:37;;;;;;;16.47;8.20;;;;;;;;;;5018150;28;20176;-67
2023/09/16 01:15:03;;;;;;;8.70;7.57;;;;;;;;;;5036212;28;20175;-68
2023/09/16 01:17:32;;;;;;;11.70;8.13;;;;;;;;;;5018320;28;20233;-67
2023/09/16 01:20:11;;;;;;;11.30;7.83;;;;;;;;;;5018343;28;20199;-67
2023/09/16 01:22:39;;;;;;;11.60;8.23;;;;;;;;;;5036049;28;20495;-68
2023/09/16 01:25:06;;;;;;;12.47;8.43;;;;;;;;;;5035705;28;20305;-68
2023/09/16 01:27:32;;;;;;;11.43;8.43;;;;;;;;;;5017956;28;20656;-68
2023/09/16 01:30:00;;;;;;;10.73;8.10;;;;;;;;;;5035473;28;20634;-67
2023/09/16 01:32:39;;;;;;;13.73;8.43;;;;;;;;;;5035678;28;20664;-68
2023/09/16 01:35:06;;;;;;;15.33;8.40;;;;;;;;;;5035605;28;20179;-69
2023/09/16 01:37:34;;;;;;;13.37;8.13;;;;;;;;;;5019051;28;20183;-68
2023/09/16 01:40:00;;;;;;;12.80;8.47;;;;;;;;;;5039157;28;20253;-67
2023/09/16 01:42:29;;;;;;;11.93;8.27;;;;;;;;;;5018090;28;20559;-67
2023/09/16 01:44:55;;;;;;;14.37;8.43;;;;;;;;;;5035605;28;20261;-68
2023/09/16 01:47:21;;;;;;;11.73;8.13;;;;;;;;;;5017514;28;20660;-67
2023/09/16 01:49:47;;;;;;;12.87;8.43;;;;;;;;;;5034528;28;20201;-69
2023/09/16 01:52:16;;;;;;;12.13;7.97;;;;;;;;;;5017513;28;20183;-68
2023/09/16 01:54:42;;;;;;;12.60;8.23;;;;;;;;;;5035062;28;20190;-68
2023/09/16 01:57:08;;;;;;;12.30;8.70;;;;;;;;;;5017463;28;20560;-68
2023/09/16 01:59:34;;;;;;;9.90;8.40;;;;;;;;;;5035173;28;20183;-67
2023/09/16 02:02:00;;;;;;;10.10;7.63;;;;;;;;;;5017105;28;20190;-67
2023/09/16 02:04:26;;;;;;;10.63;7.63;;;;;;;;;;5017011;28;20210;-69
2023/09/16 02:06:52;;;;;;;13.80;8.10;;;;;;;;;;5035504;28;20263;-68
2023/09/16 02:09:18;;;;;;;10.27;7.93;;;;;;;;;;5034837;28;20211;-68
2023/09/16 02:11:44;;;;;;;9.57;8.03;;;;;;;;;;5034671;28;20245;-68
2023/09/16 02:14:15;;;;;;;9.43;7.97;;;;;;;;;;5016911;28;20183;-68
2023/09/16 02:16:41;;;;;;;10.47;7.60;;;;;;;;;;5034596;28;20179;-68
2023/09/16 02:19:07;;;;;;;9.53;7.60;;;;;;;;;;5016689;28;20199;-68
2023/09/16 02:21:33;;;;;;;10.43;8.00;;;;;;;;;;5034416;28;20206;-67
2023/09/16 02:23:59;;;;;;;9.67;7.63;;;;;;;;;;5016936;28;20203;-68
2023/09/16 02:26:25;;;;;;;8.80;7.73;;;;;;;;;;5016929;28;20672;-68
2023/09/16 02:28:51;;;;;;;8.93;7.43;;;;;;;;;;5034629;28;20171;-66
2023/09/16 02:31:17;;;;;;;9.60;7.77;;;;;;;;;;5034335;28;20191;-67
2023/09/16 02:33:43;;;;;;;9.90;7.70;;;;;;;;;;5016560;28;20652;-67
2023/09/16 02:36:09;;;;;;;11.33;8.00;;;;;;;;;;5016439;28;20183;-68
2023/09/16 02:38:35;;;;;;;9.70;7.97;;;;;;;;;;5034173;28;20185;-68
2023/09/16 02:41:04;;;;;;;8.70;7.80;;;;;;;;;;5016300;28;20203;-68
2023/09/16 02:43:31;;;;;;;9.17;7.83;;;;;;;;;;5016326;28;20269;-68
2023/09/16 02:45:57;;;;;;;8.20;7.20;;;;;;;;;;5034150;28;20229;-68
2023/09/16 02:48:23;;;;;;;11.97;7.40;;;;;;;;;;5034497;28;20182;-68
2023/09/16 02:50:49;;;;;;;9.63;7.17;;;;;;;;;;5034391;28;20274;-67
2023/09/16 02:53:16;;;;;;;8.93;7.63;;;;;;;;;;5034320;28;20175;-68
2023/09/16 02:55:42;;;;;;;10.87;8.00;;;;;;;;;;5034300;28;20243;-68
2023/09/16 02:58:08;;;;;;;9.13;7.83;;;;;;;;;;5016025;28;20653;-68
2023/09/16 03:00:34;;;;;;;11.87;7.43;;;;;;;;;;5015776;28;20206;-68
2023/09/16 03:03:00;;;;;;;8.40;7.40;;;;;;;;;;5034065;28;20217;-68
2023/09/16 03:05:26;;;;;;;11.00;7.50;;;;;;;;;;5015726;28;20299;-67
2023/09/16 03:07:52;;;;;;;8.73;7.77;;;;;;;;;;5015796;28;20190;-69
2023/09/16 03:10:18;;;;;;;9.57;7.47;;;;;;;;;;5015865;28;20218;-67
2023/09/16 03:12:44;;;;;;;10.80;7.97;;;;;;;;;;5016042;28;20174;-67
2023/09/16 03:15:11;;;;;;;9.00;7.07;;;;;;;;;;5033933;28;20183;-67
2023/09/16 03:17:37;;;;;;;9.37;8.37;;;;;;;;;;5015919;28;20274;-68
2023/09/16 03:20:03;;;;;;;11.30;8.03;;;;;;;;;;5033705;28;20239;-68
2023/09/16 03:22:29;;;;;;;10.40;7.80;;;;;;;;;;5033506;28;20556;-69
2023/09/16 03:24:55;;;;;;;14.47;8.30;;;;;;;;;;5033969;28;20258;-68
2023/09/16 03:27:21;;;;;;;9.07;8.17;;;;;;;;;;5033710;28;20672;-69
2023/09/16 03:29:47;;;;;;;11.83;9.10;;;;;;;;;;5015689;28;20199;-69
2023/09/16 03:32:13;;;;;;;10.57;8.47;;;;;;;;;;5033626;28;20175;-66
2023/09/16 03:34:39;;;;;;;11.67;9.60;;;;;;;;;;5033549;28;20195;-67
2023/09/16 03:37:05;;;;;;;11.73;8.97;;;;;;;;;;5033547;28;20549;-67
2023/09/16 03:39:31;;;;;;;11.87;9.33;;;;;;;;;;5015523;28;20193;-67
2023/09/16 03:41:57;;;;;;;11.43;8.23;;;;;;;;;;5015630;28;20175;-67
2023/09/16 03:44:23;;;;;;;14.07;8.97;;;;;;;;;;5015884;28;20214;-67
2023/09/16 03:46:49;;;;;;;14.23;9.60;;;;;;;;;;5015368;28;20273;-68
2023/09/16 03:49:15;;;;;;;13.40;9.03;;;;;;;;;;5034820;28;20179;-68
2023/09/16 03:51:41;;;;;;;11.07;9.13;;;;;;;;;;5018155;28;20269;-67
2023/09/16 03:54:07;;;;;;;14.53;10.00;;;;;;;;;;5033158;28;20222;-67
2023/09/16 03:56:34;;;;;;;13.70;9.43;;;;;;;;;;5032920;28;20179;-68
2023/09/16 03:59:00;;;;;;;14.13;11.00;;;;;;;;;;5015129;28;20262;-67
2023/09/16 04:01:26;;;;;;;12.53;10.13;;;;;;;;;;5032884;28;20234;-69
2023/09/16 04:03:54;;;;;;;15.83;11.20;;;;;;;;;;5015063;28;20210;-67
2023/09/16 04:06:20;;;;;;;15.13;11.13;;;;;;;;;;5033119;28;20168;-67
2023/09/16 04:08:46;;;;;;;13.90;11.40;;;;;;;;;;5015149;28;20528;-68
2023/09/16 04:11:12;;;;;;;14.10;11.40;;;;;;;;;;5032629;28;20221;-67
2023/09/16 04:13:38;;;;;;;14.37;11.63;;;;;;;;;;5020012;28;20333;-68
2023/09/16 04:16:04;;;;;;;13.40;11.63;;;;;;;;;;5039530;28;20618;-67
2023/09/16 04:18:31;;;;;;;13.23;11.20;;;;;;;;;;5021627;28;20273;-66
2023/09/16 04:20:57;;;;;;;16.50;11.67;;;;;;;;;;5021461;28;20285;-66
2023/09/16 04:23:23;;;;;;;15.80;11.37;;;;;;;;;;5039399;28;20218;-68
2023/09/16 04:25:56;;;;;;;18.20;13.70;;;;;;;;;;5039797;28;20171;-68
2023/09/16 04:28:22;;;;;;;16.93;14.73;;;;;;;;;;5039240;28;20655;-66
2023/09/16 04:30:49;;;;;;;18.53;15.07;;;;;;;;;;5039637;28;20206;-67
2023/09/16 04:33:15;;;;;;;16.00;13.27;;;;;;;;;;5039528;28;20656;-68
2023/09/16 04:35:48;;;;;;;20.90;14.70;;;;;;;;;;5039206;28;20183;-68
2023/09/16 04:38:15;;;;;;;17.60;13.10;;;;;;;;;;5039245;28;20209;-68
2023/09/16 04:40:42;;;;;;;14.67;12.00;;;;;;;;;;5039926;28;20199;-68
2023/09/16 04:43:08;;;;;;;14.70;11.40;;;;;;;;;;5021952;28;20185;-67
2023/09/16 04:45:34;;;;;;;15.43;12.33;;;;;;;;;;5039868;28;20563;-68
2023/09/16 04:48:03;;;;;;;16.27;12.07;;;;;;;;;;5039127;28;20175;-67
2023/09/16 04:50:29;;;;;;;15.63;13.63;;;;;;;;;;5021424;28;20274;-68
2023/09/16 04:52:55;;;;;;;17.83;13.43;;;;;;;;;;5021391;28;20175;-68
2023/09/16 04:55:22;;;;;;;15.57;12.00;;;;;;;;;;5039070;28;20198;-67
2023/09/16 04:57:47;;;;;;;16.60;12.07;;;;;;;;;;5021781;28;20179;-68
2023/09/16 05:00:14;;;;;;;17.30;12.27;;;;;;;;;;5039222;28;20704;-68
2023/09/16 05:02:39;;;;;;;14.30;11.43;;;;;;;;;;5021221;28;20301;-68
2023/09/16 05:05:06;;;;;;;14.30;11.63;;;;;;;;;;5038846;28;20605;-67
2023/09/16 05:07:31;;;;;;;16.43;11.37;;;;;;;;;;5021315;28;20722;-67
2023/09/16 05:09:58;;;;;;;14.03;11.27;;;;;;;;;;5038988;28;20277;-68
2023/09/16 05:12:24;;;;;;;12.53;11.23;;;;;;;;;;5039105;28;20664;-68
2023/09/16 05:14:50;;;;;;;12.23;10.90;;;;;;;;;;5039416;28;20182;-69
2023/09/16 05:17:16;;;;;;;13.97;11.17;;;;;;;;;;5022027;28;20175;-67
2023/09/16 05:19:42;;;;;;;13.53;10.30;;;;;;;;;;5022922;28;20213;-67
2023/09/16 05:22:08;;;;;;;17.43;10.27;;;;;;;;;;5041503;28;20183;-67
2023/09/16 05:24:34;;;;;;;14.90;11.23;;;;;;;;;;5021206;28;20199;-68
2023/09/16 05:27:00;;;;;;;12.87;10.47;;;;;;;;;;5038197;28;20180;-66
2023/09/16 05:29:26;;;;;;;14.73;10.27;;;;;;;;;;5020353;28;20241;-65
2023/09/16 05:31:53;;;;;;;15.60;10.43;;;;;;;;;;5018196;28;20183;-68
2023/09/16 05:34:19;;;;;;;14.80;10.33;;;;;;;;;;5035730;28;20179;-67
2023/09/16 05:36:45;;;;;;;16.27;10.17;;;;;;;;;;5017742;28;20543;-67
2023/09/16 05:39:11;;;;;;;12.73;10.33;;;;;;;;;;5035571;28;20241;-67
2023/09/16 05:41:37;;;;;;;10.57;9.47;;;;;;;;;;5017525;28;20214;-67
2023/09/16 05:44:03;;;;;;;13.87;10.40;;;;;;;;;;5035924;28;20603;-67
2023/09/16 05:46:30;;;;;;;15.97;10.37;;;;;;;;;;5017411;28;20663;-68
2023/09/16 05:48:56;;;;;;;12.63;9.77;;;;;;;;;;5035152;28;20179;-66
2023/09/16 05:51:22;;;;;;;10.33;9.07;;;;;;;;;;5017328;28;20210;-65
2023/09/16 05:53:48;;;;;;;13.23;9.37;;;;;;;;;;5035455;28;20179;-68
2023/09/16 05:56:14;;;;;;;17.90;9.60;;;;;;;;;;5017269;28;20179;-68
2023/09/16 05:58:40;;;;;;;10.30;9.20;;;;;;;;;;5035578;28;20621;-67
2023/09/16 06:01:06;;;;;;;9.73;8.47;;;;;;;;;;5036400;28;20673;-67
2023/09/16 06:03:32;;;;;;;13.03;9.00;;;;;;;;;;5038698;28;20211;-67
2023/09/16 06:05:58;;;;;;;13.73;9.00;;;;;;;;;;5035414;28;20237;-67
2023/09/16 06:08:24;;;;;;;13.13;9.10;;;;;;;;;;5017042;28;20179;-67
2023/09/16 06:10:50;;;;;;;14.47;8.73;;;;;;;;;;5016902;28;20219;-67
2023/09/16 06:13:16;;;;;;;14.67;9.10;;;;;;;;;;5034854;28;20175;-67
2023/09/16 06:15:43;;;;;;;15.37;8.93;;;;;;;;;;5034856;28;20550;-68
2023/09/16 06:18:09;;;;;;;10.33;8.43;;;;;;;;;;5016893;28;20560;-67
2023/09/16 06:20:35;;;;;;;11.57;8.60;;;;;;;;;;5016881;28;20222;-69
2023/09/16 06:23:03;;;;;;;11.63;7.83;;;;;;;;;;5034740;28;20548;-68
2023/09/16 06:25:30;;;;;;;10.40;8.40;;;;;;;;;;5034520;28;20213;-68
2023/09/16 06:27:58;;;;;;;11.07;8.27;;;;;;;;;;5035101;28;20173;-67
2023/09/16 06:30:24;;;;;;;12.53;8.60;;;;;;;;;;5016757;28;20203;-66
2023/09/16 06:32:50;;;;;;;11.87;8.07;;;;;;;;;;5034778;28;20182;-67
2023/09/16 06:35:15;;;;;;;9.27;7.93;;;;;;;;;;5033850;28;20254;-67
2023/09/16 06:37:41;;;;;;;9.40;8.50;;;;;;;;;;5016703;28;20183;-68
2023/09/16 06:40:07;;;;;;;11.90;8.23;;;;;;;;;;5034179;28;20203;-68
2023/09/16 06:42:33;;;;;;;12.33;7.73;;;;;;;;;;5034439;28;20192;-68
2023/09/16 06:44:59;;;;;;;10.23;8.63;;;;;;;;;;5017537;28;20572;-67
2023/09/16 06:47:29;;;;;;;13.70;8.70;;;;;;;;;;5016784;28;20186;-68
2023/09/16 06:49:56;;;;;;;9.83;7.67;;;;;;;;;;5034516;28;20195;-68
2023/09/16 06:52:22;;;;;;;15.03;10.83;;;;;;;;;;5034145;28;20171;-68
2023/09/16 06:54:49;;;;;;;12.63;8.83;;;;;;;;;;5034043;28;20537;-68
2023/09/16 06:57:15;;;;;;;8.87;7.90;;;;;;;;;;5034406;28;20178;-68
2023/09/16 06:59:41;;;;;;;9.10;8.00;;;;;;;;;;5034262;28;20199;-68
2023/09/16 07:02:07;;;;;;;9.47;8.53;;;;;;;;;;5016347;28;20186;-67
2023/09/16 07:04:36;;;;;;;11.00;8.80;;;;;;;;;;5033733;28;20210;-67
2023/09/16 07:07:02;;;;;;;11.33;9.07;;;;;;;;;;5034522;28;20242;-68
2023/09/16 07:09:28;;;;;;;13.63;8.37;;;;;;;;;;5033701;28;20179;-69
2023/09/16 07:11:54;;;;;;;12.40;9.07;;;;;;;;;;5034031;28;20210;-68
2023/09/16 07:14:20;;;;;;;12.03;7.87;;;;;;;;;;5034489;28;20179;-69
2023/09/16 07:16:46;;;;;;;12.80;8.73;;;;;;;;;;5033780;28;20175;-68
2023/09/16 07:19:12;;;;;;;11.20;7.70;;;;;;;;;;5034051;28;20203;-68
2023/09/16 07:21:38;;;;;;;12.73;8.30;;;;;;;;;;5033756;28;20199;-68
2023/09/16 07:24:04;;;;;;;13.07;8.80;;;;;;;;;;5033678;28;20235;-67
2023/09/16 07:26:30;;;;;;;10.27;8.37;;;;;;;;;;5033565;28;20194;-68
2023/09/16 07:28:57;;;;;;;10.20;8.10;;;;;;;;;;5033430;28;20175;-67
2023/09/16 07:31:23;;;;;;;9.00;8.10;;;;;;;;;;5033409;28;20199;-68
2023/09/16 07:33:49;;;;;;;14.40;7.73;;;;;;;;;;5033229;28;20182;-68
2023/09/16 07:36:15;;;;;;;9.60;7.33;;;;;;;;;;5033252;28;20183;-68
2023/09/16 07:38:41;;;;;;;10.40;7.70;;;;;;;;;;5033409;28;20206;-68
2023/09/16 07:41:07;;;;;;;8.63;7.27;;;;;;;;;;5015597;28;20705;-68
2023/09/16 07:43:33;;;;;;;10.00;7.40;;;;;;;;;;5016067;28;20221;-67
2023/09/16 07:45:59;;;;;;;11.63;6.90;;;;;;;;;;5033372;28;20207;-69
2023/09/16 07:48:25;;;;;;;8.90;7.33;;;;;;;;;;5014615;28;20183;-70
2023/09/16 07:50:51;;;;;;;10.53;6.73;;;;;;;;;;5033226;28;20218;-68
2023/09/16 07:53:17;;;;;;;6.97;6.27;;;;;;;;;;5015424;28;20191;-68
2023/09/16 07:55:43;;;;;;;10.80;6.20;;;;;;;;;;5033266;28;20179;-68
2023/09/16 07:58:09;;;;;;;8.83;6.10;;;;;;;;;;5033233;28;20611;-68
2023/09/16 08:00:35;;;;;;;9.70;6.17;;;;;;;;;;5015206;28;20227;-68
2023/09/16 08:03:01;;;;;;;11.50;6.50;;;;;;;;;;5032972;28;20183;-69
2023/09/16 08:05:27;;;;;;;10.93;5.93;;;;;;;;;;5034099;28;20040;-69
2023/09/16 08:07:53;;;;;;;10.67;6.73;;;;;;;;;;5038010;28;20206;-69
2023/09/16 08:10:19;;;;;;;9.87;6.43;;;;;;;;;;5020471;28;20260;-68
2023/09/16 08:12:45;;;;;;;7.43;6.10;;;;;;;;;;5016697;28;20285;-68
2023/09/16 08:15:11;;;;;;;9.87;7.17;;;;;;;;;;5034850;28;20593;-67
2023/09/16 08:17:40;;;;;;;8.70;7.03;;;;;;;;;;5035548;28;20189;-68
2023/09/16 08:20:07;;;;;;;10.67;6.63;;;;;;;;;;5033902;28;20206;-70
2023/09/16 08:22:33;;;;;;;12.87;6.47;;;;;;;;;;5015902;28;20509;-68
2023/09/16 08:24:59;;;;;;;8.27;6.07;;;;;;;;;;5033537;28;20209;-68
2023/09/16 08:27:25;;;;;;;7.20;6.03;;;;;;;;;;5033237;28;20573;-69
2023/09/16 08:29:53;;;;;;;6.57;5.87;;;;;;;;;;5033099;28;20218;-69
2023/09/16 08:32:21;;;;;;;8.93;6.43;;;;;;;;;;5015664;28;20175;-70
2023/09/16 08:34:47;;;;;;;10.20;6.73;;;;;;;;;;5015415;28;20190;-68
2023/09/16 08:37:13;;;;;;;8.90;5.20;;;;;;;;;;5014993;28;20191;-69
2023/09/16 08:39:39;;;;;;;5.27;4.80;;;;;;;;;;5032701;28;20183;-69
2023/09/16 08:42:24;;;;;;;7.30;5.10;;;;;;;;;;5032797;28;20241;-69
2023/09/16 08:44:51;;;;;;;7.83;4.43;;;;;;;;;;5014958;28;20341;-69
2023/09/16 08:47:21;;;;;;;5.87;4.50;;;;;;;;;;5032597;28;20179;-69
2023/09/16 08:49:52;;;;;;;7.03;5.00;;;;;;;;;;5033190;28;20206;-68
2023/09/16 08:52:19;;;;;;;7.27;4.63;;;;;;;;;;5033133;28;20212;-68
2023/09/16 08:54:48;;;;;;;7.53;4.67;;;;;;;;;;5033480;28;20270;-67
2023/09/16 08:57:15;;;;;;;8.23;4.50;;;;;;;;;;5016494;28;20215;-68
2023/09/16 08:59:41;;;;;;;5.33;4.83;;;;;;;;;;5035641;28;20277;-69
2023/09/16 09:02:08;;;;;;;4.67;4.27;;;;;;;;;;5036188;28;20187;-71
2023/09/16 09:04:35;;;;;;;5.33;4.83;;;;;;;;;;5018473;28;20231;-68
2023/09/16 09:07:01;;;;;;;6.07;5.23;;;;;;;;;;5018269;28;20645;-68
2023/09/16 09:09:28;;;;;;;6.60;5.30;;;;;;;;;;5018019;28;20202;-68
2023/09/16 09:11:55;;;;;;;7.17;5.60;;;;;;;;;;5018021;28;20262;-68
2023/09/16 09:14:23;;;;;;;7.00;5.50;;;;;;;;;;5036264;28;20233;-68
2023/09/16 09:16:49;;;;;;;7.53;5.70;;;;;;;;;;5018418;28;20179;-69
2023/09/16 09:19:15;;;;;;;10.63;6.37;;;;;;;;;;5018620;28;20633;-69
2023/09/16 09:21:43;;;;;;;7.73;5.50;;;;;;;;;;5018082;28;20203;-69
2023/09/16 09:24:09;;;;;;;7.10;5.63;;;;;;;;;;5018024;28;20264;-70
2023/09/16 09:26:35;;;;;;;5.40;4.90;;;;;;;;;;5035718;28;20254;-69
2023/09/16 09:29:01;;;;;;;7.67;5.77;;;;;;;;;;5036008;28;20179;-66
2023/09/16 09:31:27;;;;;;;8.93;6.07;;;;;;;;;;5017966;28;20199;-69
2023/09/16 09:33:53;;;;;;;10.20;6.00;;;;;;;;;;5035730;28;20184;-69
2023/09/16 09:36:19;;;;;;;8.77;6.03;;;;;;;;;;5035525;28;20229;-69
2023/09/16 09:38:46;;;;;;;9.30;5.67;;;;;;;;;;5035509;28;20183;-70
2023/09/16 09:41:12;;;;;;;11.97;5.70;;;;;;;;;;5035314;28;20205;-70
2023/09/16 09:43:38;;;;;;;6.67;5.30;;;;;;;;;;5017627;28;20256;-68
2023/09/16 09:46:04;;;;;;;6.23;5.60;;;;;;;;;;5035218;28;20183;-68
2023/09/16 09:48:31;;;;;;;8.00;5.10;;;;;;;;;;5035797;28;20178;-69
2023/09/16 09:50:57;;;;;;;7.17;5.40;;;;;;;;;;5035005;28;20636;-69
2023/09/16 09:53:26;;;;;;;10.73;5.17;;;;;;;;;;5035278;28;20241;-69
2023/09/16 09:55:53;;;;;;;5.77;5.03;;;;;;;;;;5035031;28;20286;-69
2023/09/16 09:58:19;;;;;;;6.53;5.40;;;;;;;;;;5017095;28;20191;-69
2023/09/16 10:00:46;;;;;;;9.83;5.57;;;;;;;;;;5017188;28;20206;-70
2023/09/16 10:03:13;;;;;;;6.33;5.37;;;;;;;;;;5017135;28;20183;-69
2023/09/16 10:05:39;;;;;;;7.60;5.67;;;;;;;;;;5017853;28;20203;-70
2023/09/16 10:08:05;;;;;;;7.33;5.93;;;;;;;;;;5034808;28;20183;-69
2023/09/16 10:10:32;;;;;;;8.13;5.47;;;;;;;;;;5015828;28;20250;-68
2023/09/16 10:12:58;;;;;;;6.87;5.30;;;;;;;;;;5035079;28;20203;-69
2023/09/16 10:15:25;;;;;;;10.97;5.63;;;;;;;;;;5016965;28;20198;-69
2023/09/16 10:17:51;;;;;;;7.93;5.53;;;;;;;;;;5016835;28;20183;-68
2023/09/16 10:20:17;;;;;;;6.13;5.53;;;;;;;;;;5035043;28;20207;-69
2023/09/16 10:22:43;;;;;;;6.70;5.47;;;;;;;;;;5034830;28;20179;-68
2023/09/16 10:25:11;;;;;;;5.80;5.30;;;;;;;;;;5034741;28;20207;-70
2023/09/16 10:27:40;;;;;;;7.57;5.30;;;;;;;;;;5034810;28;20229;-69
2023/09/16 10:30:07;;;;;;;6.40;5.60;;;;;;;;;;5016908;28;20290;-68
2023/09/16 10:32:33;;;;;;;6.37;5.00;;;;;;;;;;5017846;28;20183;-69
2023/09/16 10:35:01;;;;;;;5.50;5.00;;;;;;;;;;5016780;28;20622;-68
2023/09/16 10:37:28;;;;;;;6.63;5.13;;;;;;;;;;5016739;28;20179;-69
2023/09/16 10:39:55;;;;;;;10.30;5.83;;;;;;;;;;5034669;28;20199;-69
2023/09/16 10:42:22;;;;;;;6.20;5.00;;;;;;;;;;5016856;28;20679;-69
2023/09/16 10:44:48;;;;;;;13.53;9.17;;;;;;;;;;5034109;28;20209;-68
2023/09/16 10:47:16;;;;;;;8.60;7.27;;;;;;;;;;5036105;28;20185;-68
2023/09/16 10:49:43;;;;;;;9.67;7.50;;;;;;;;;;5036348;28;20199;-69
2023/09/16 10:52:10;;;;;;;10.30;6.97;;;;;;;;;;5034770;28;20175;-69
2023/09/16 10:54:44;;;;;;;7.60;6.70;;;;;;;;;;5034183;28;20266;-69
2023/09/16 10:57:26;;;;;;;6.50;5.80;;;;;;;;;;5034249;28;20182;-69
2023/09/16 10:59:52;;;;;;;10.63;5.90;;;;;;;;;;5016595;28;20213;-70
2023/09/16 11:02:25;;;;;;;7.87;6.40;;;;;;;;;;5016522;28;20233;-69
2023/09/16 11:04:51;;;;;;;8.03;6.63;;;;;;;;;;5034144;28;20195;-70
2023/09/16 11:07:17;;;;;;;10.13;8.03;;;;;;;;;;5016340;28;20175;-69
2023/09/16 11:09:45;;;;;;;8.70;7.80;;;;;;;;;;5033615;28;20569;-68
2023/09/16 11:12:11;;;;;;;11.37;8.30;;;;;;;;;;5034200;28;20187;-69
2023/09/16 11:14:37;;;;;;;14.13;9.40;;;;;;;;;;5037333;28;20620;-68
2023/09/16 11:17:10;;;;;;;9.50;7.77;;;;;;;;;;5040105;28;20217;-68
2023/09/16 11:19:36;;;;;;;11.40;7.13;;;;;;;;;;5020080;28;20172;-69
2023/09/16 11:22:02;;;;;;;9.73;6.33;;;;;;;;;;5033790;28;20179;-69
2023/09/16 11:24:28;;;;;;;8.00;7.20;;;;;;;;;;5016162;28;20614;-69
2023/09/16 11:26:56;;;;;;;13.13;9.93;;;;;;;;;;5015895;28;20593;-69
2023/09/16 11:29:23;;;;;;;10.33;8.27;;;;;;;;;;5033770;28;20190;-70
2023/09/16 11:31:49;;;;;;;11.07;9.83;;;;;;;;;;5033812;28;20175;-69
2023/09/16 11:34:19;;;;;;;11.07;9.20;;;;;;;;;;5016715;28;20202;-69
2023/09/16 11:36:49;;;;;;;10.17;7.70;;;;;;;;;;5017555;28;20183;-69
2023/09/16 11:39:15;;;;;;;10.87;7.60;;;;;;;;;;5037847;28;20180;-69
2023/09/16 11:41:42;;;;;;;14.17;8.63;;;;;;;;;;5038187;28;20206;-68
2023/09/16 11:44:08;;;;;;;14.53;9.57;;;;;;;;;;5018628;28;20210;-69
2023/09/16 11:46:35;;;;;;;11.93;9.40;;;;;;;;;;5015971;28;20278;-69
2023/09/16 11:49:03;;;;;;;14.23;10.70;;;;;;;;;;5033651;28;20183;-69
2023/09/16 11:51:29;;;;;;;11.43;9.77;;;;;;;;;;5033183;28;20656;-69
2023/09/16 11:53:55;;;;;;;12.00;9.00;;;;;;;;;;5015684;28;20752;-69
2023/09/16 11:56:23;;;;;;;13.10;7.80;;;;;;;;;;5033469;28;20175;-68
2023/09/16 11:58:49;;;;;;;11.70;8.20;;;;;;;;;;5033390;28;20618;-68
2023/09/16 12:01:19;;;;;;;8.77;7.87;;;;;;;;;;5015423;28;20214;-68
2023/09/16 12:03:45;;;;;;;10.73;7.83;;;;;;;;;;5015731;28;20213;-69
2023/09/16 12:06:11;;;;;;;9.60;8.00;;;;;;;;;;5015778;28;20633;-69
2023/09/16 12:08:42;;;;;;;11.20;8.17;;;;;;;;;;5033271;28;20182;-69
2023/09/16 12:11:08;;;;;;;10.63;7.97;;;;;;;;;;5015556;28;20250;-69
2023/09/16 12:13:34;;;;;;;14.00;7.67;;;;;;;;;;5015787;28;20203;-69
2023/09/16 12:16:00;;;;;;;11.17;7.63;;;;;;;;;;5015428;28;20644;-69
2023/09/16 12:18:27;;;;;;;11.37;8.37;;;;;;;;;;5033698;28;20253;-69
2023/09/16 12:20:53;;;;;;;12.57;8.03;;;;;;;;;;5032824;28;20766;-70
2023/09/16 12:23:19;;;;;;;10.63;8.63;;;;;;;;;;5033223;28;20630;-68
2023/09/16 12:25:45;;;;;;;11.63;9.10;;;;;;;;;;5032914;28;20242;-69
2023/09/16 12:28:21;;;;;;;12.30;7.97;;;;;;;;;;5015072;28;20183;-69
2023/09/16 12:30:50;;;;;;;8.87;7.10;;;;;;;;;;5032761;28;20248;-69
2023/09/16 12:33:16;;;;;;;16.03;9.03;;;;;;;;;;5033030;28;20171;-70
2023/09/16 12:35:42;;;;;;;12.50;8.03;;;;;;;;;;5019141;28;20316;-69
2023/09/16 12:38:08;;;;;;;9.47;8.07;;;;;;;;;;5036765;28;20190;-69
2023/09/16 12:40:35;;;;;;;9.20;7.70;;;;;;;;;;5036815;28;20645;-69
2023/09/16 12:43:01;;;;;;;11.53;8.00;;;;;;;;;;5037030;28;20178;-68
2023/09/16 12:45:28;;;;;;;9.73;7.07;;;;;;;;;;5036793;28;20241;-69
2023/09/16 12:47:55;;;;;;;9.93;7.90;;;;;;;;;;5036485;28;20179;-70
2023/09/16 12:50:21;;;;;;;11.90;7.00;;;;;;;;;;5036242;28;20270;-70
2023/09/16 12:52:48;;;;;;;7.40;6.70;;;;;;;;;;5018422;28;20603;-70
2023/09/16 12:55:14;;;;;;;8.73;7.40;;;;;;;;;;5036255;28;20253;-70
2023/09/16 12:57:42;;;;;;;7.70;6.90;;;;;;;;;;5036236;28;20175;-70
2023/09/16 13:00:15;;;;;;;8.67;6.70;;;;;;;;;;5036545;28;20195;-70
2023/09/16 13:02:41;;;;;;;8.30;6.20;;;;;;;;;;5018582;28;20660;-71
2023/09/16 13:05:11;;;;;;;7.93;6.53;;;;;;;;;;5036152;28;20699;-69
2023/09/16 13:07:38;;;;;;;6.57;6.00;;;;;;;;;;5018473;28;20180;-69
2023/09/16 13:10:04;;;;;;;6.27;5.77;;;;;;;;;;5035858;28;20305;-69
2023/09/16 13:12:31;;;;;;;6.57;5.97;;;;;;;;;;5036077;28;20236;-69
2023/09/16 13:14:57;;;;;;;8.90;7.97;;;;;;;;;;5017886;28;20232;-70
2023/09/16 13:20:01;;;;;;;7.23;6.53;;;;;;;;;;5015788;28;20556;-68
2023/09/16 13:22:27;;;;;;;9.90;6.70;;;;;;;;;;5015009;28;20187;-69
2023/09/16 13:24:53;;;;;;;8.97;7.00;;;;;;;;;;5017092;28;20200;-68
2023/09/16 13:27:20;;;;;;;7.57;6.77;;;;;;;;;;5017410;28;20247;-69
2023/09/16 13:29:45;;;;;;;6.90;6.27;;;;;;;;;;5016705;28;20215;-71
2023/09/16 13:32:11;;;;;;;11.40;7.40;;;;;;;;;;5014319;28;20447;-69
2023/09/16 13:34:38;;;;;;;9.25;7.00;;;;;;;;;;5014926;28;20809;-69
2023/09/16 13:37:04;;;;;;;7.93;7.13;;;;;;;;;;5016179;28;20171;-69
2023/09/16 13:39:40;;;;;;;7.63;6.85;;;;;;;;;;5016054;28;20574;-69
2023/09/16 13:42:06;;;;;;;8.80;6.70;;;;;;;;;;5016146;28;20174;-69
2023/09/16 13:44:32;;;;;;;9.40;7.28;;;;;;;;;;5014268;28;20098;-69
2023/09/16 13:46:58;;;;;;;8.13;7.07;;;;;;;;;;5013919;28;20517;-69
2023/09/16 13:49:24;;;;;;;7.97;7.20;;;;;;;;;;5015779;28;20203;-68
2023/09/16 13:51:51;;;;;;;7.80;7.00;;;;;;;;;;5016954;28;20183;-68
2023/09/16 13:54:17;;;;;;;8.77;6.43;;;;;;;;;;5016347;28;20183;-69
2023/09/16 13:56:43;;;;;;;9.88;7.57;;;;;;;;;;5015728;28;20755;-69
2023/09/16 13:59:10;;;;;;;7.78;6.85;;;;;;;;;;5015034;28;20196;-69
2023/09/16 14:01:36;;;;;;;7.72;6.88;;;;;;;;;;5014767;28;20784;-69
2023/09/16 14:04:02;;;;;;;7.85;6.68;;;;;;;;;;5016000;28;20577;-69
2023/09/16 14:06:29;;;;;;;8.87;6.83;;;;;;;;;;5015798;28;20178;-69
2023/09/16 14:08:55;;;;;;;8.85;7.22;;;;;;;;;;5013139;28;20381;-69
2023/09/16 14:11:21;;;;;;;9.57;7.78;;;;;;;;;;5013387;28;20782;-69
2023/09/16 14:13:47;;;;;;;7.68;6.90;;;;;;;;;;5014560;28;20381;-69
2023/09/16 14:16:13;;;;;;;;;;;;;;;;;;5014555;28;20504;-69
2023/09/16 14:18:39;;;;;;;;;;;;;;;;;;5014406;28;20280;-69
2023/09/16 14:21:05;;;;;;;9.15;6.82;;;;;;;;;;5014002;28;20166;-69
2023/09/16 14:23:31;;;;;;;7.85;6.93;;;;;;;;;;5014422;28;20377;-69
2023/09/16 14:26:01;;;;;;;10.38;7.03;;;;;;;;;;5014096;28;20452;-69
2023/09/16 14:28:27;;;;;;;9.45;7.03;;;;;;;;;;5012653;28;20400;-69
2023/09/16 14:30:53;;;;;;;7.68;6.82;;;;;;;;;;5012567;28;20434;-69
2023/09/16 14:33:18;;;;;;;11.67;7.60;;;;;;;;;;5012650;28;20397;-69